Terminal Aerodrome Forecast
Issued by NWS

Home | Current Version | Previous Version | Text Only | Print | Product List | Glossary On
Versions: 1 2 3 4 5 6 7 8 9 10 11 12 13 14 15 16 17 18 19 20 21 22 23 24 25 26 27 28 29 30 31 32 33 34 35 36 37 38 39 40
000
FTUS45 KBOU 210550
TAFAPA
TAF
KAPA 210550Z 2106/2206 33008KT P6SM FEW080 BKN110
     FM210800 25008KT P6SM SCT110 BKN200
     FM211600 32007KT P6SM FEW110
     FM212000 05010KT P6SM SCT110 BKN220
     FM220200 18007KT P6SM FEW110=

USA.gov is the U.S. government's official web portal to all federal, state and local government web resources and services.